Pagrindinis puslapis
METAR-TAF:

METAR-TAF

Oro uostai :

Bvakė, Dramblio Kaulo Krantas

platuma: 07-44N, ilguma: 005-04W, Aukštis: 376 m

Dabartinis oras

Ataskaita buvo paskelbta 45 minutes, ne 08:00 UTC
Vėjas 10 kt iš Pietvakarių
Temperatūra 27°C
Drėgmė 89%
Slėgis 1012 hPa
Matomumas: 8000 m
Išsisklaidę debesys ne aukštis 1100 ft

METAR: DIBK 180800Z 22010KT 8000 SCT011 27/25 Q1012 NOSIG

Laikas: 08:45 (08:45 UTC)

Prognozė

Ataskaita buvo paskelbta 3 valandos ir 45 minutes, ne 05:00 UTC
Prognozė galioja nuo 18 metu 06 UTC su 19 metu 06 UTC
Vėjas 10 kt iš Pietų/Pietvakarių
Matomumas: 8000 m
Mažai debesys ne aukštis 1200 ft
Tikimybė 30% :
Laikinai
nuo 18 metu 16 UTC su 18 metu 21 UTC
Su prošvaistėmis ne aukštis 1300 ft
Mažai debesys ne aukštis 2300 ft, Liūtiniai kamuoliniai debesys.
perkūnija,

TAF: DIBK 180500Z 1806/1906 20010KT 8000 FEW012 PROB30 TEMPO 1816/1821 TS BKN013 FEW023CB

Orai ataskaitas ir orų prognozės (METAR, TAF).

turimą stotys yra geltonos ir raudonos taškus žemėlapyje.

Perkelti pele per norėdami pamatyti stoties vardą.

Tada spustelėkite, norėdami matyti oro stebėjimo ir prognozės.

Norėdami pakeisti žemėlapį: spustelėkite ant žalios mygtukų su juodo kryžiaus žemyn,; žalią mygtuką su brūkšneliu, jei norite nutolinti; arba žalių rodyklių gretimoms žemėlapius.


METAR-TAF: